createdAt,value
2022-11-14T00:02:41.564Z,29.20
2022-11-14T00:05:28.153Z,29.13
2022-11-14T00:08:25.327Z,28.10
2022-11-14T00:11:11.163Z,29.17
2022-11-14T00:13:56.869Z,29.07
2022-11-14T00:16:42.578Z,29.53
2022-11-14T00:19:28.553Z,31.03
2022-11-14T00:22:14.136Z,31.70
2022-11-14T00:25:00.320Z,30.20
2022-11-14T00:27:46.230Z,31.20
2022-11-14T00:30:32.103Z,30.60
2022-11-14T00:33:21.377Z,32.80
2022-11-14T00:36:07.478Z,28.97
2022-11-14T00:38:55.370Z,34.03
2022-11-14T00:41:42.160Z,32.57
2022-11-14T00:44:28.002Z,41.57
2022-11-14T00:47:13.746Z,40.63
2022-11-14T00:49:59.422Z,40.93
2022-11-14T00:52:45.422Z,34.30
2022-11-14T00:55:31.356Z,35.03
2022-11-14T00:58:17.539Z,35.13
2022-11-14T01:01:04.302Z,37.83
2022-11-14T01:03:51.612Z,34.77
2022-11-14T01:06:37.372Z,32.87
2022-11-14T01:09:23.263Z,34.07
2022-11-14T01:12:10.357Z,32.40
2022-11-14T01:14:56.112Z,34.83
2022-11-14T01:17:42.086Z,33.43
2022-11-14T01:20:28.048Z,37.03
2022-11-14T01:23:15.964Z,36.80
2022-11-14T01:26:11.055Z,41.77
2022-11-14T01:28:56.975Z,46.73
2022-11-14T01:31:42.675Z,44.83
2022-11-14T01:34:29.760Z,43.17
2022-11-14T01:37:15.797Z,43.33
2022-11-14T01:40:01.720Z,43.20
2022-11-14T01:43:22.084Z,42.33
2022-11-14T01:46:16.455Z,41.50
2022-11-14T01:49:25.873Z,40.63
2022-11-14T01:52:22.236Z,38.17
2022-11-14T01:55:10.291Z,40.73
2022-11-14T01:57:57.890Z,39.77
2022-11-14T02:00:44.588Z,38.80
2022-11-14T02:03:31.313Z,37.20
2022-11-14T02:06:21.251Z,36.60
2022-11-14T02:09:08.288Z,38.23
2022-11-14T02:11:57.541Z,35.83
2022-11-14T02:14:46.199Z,36.10
2022-11-14T02:17:32.772Z,37.30
2022-11-14T02:20:24.508Z,35.43
2022-11-14T02:23:11.896Z,36.10
2022-11-14T02:25:58.211Z,36.83
2022-11-14T02:28:43.959Z,35.13
2022-11-14T02:31:30.492Z,34.67
2022-11-14T02:34:20.166Z,35.27
2022-11-14T02:37:07.323Z,34.67
2022-11-14T02:39:53.230Z,35.20
2022-11-14T02:42:38.826Z,33.60
2022-11-14T02:45:25.217Z,34.57
2022-11-14T02:48:11.146Z,35.70
2022-11-14T02:50:57.033Z,36.57
2022-11-14T02:53:42.996Z,34.87
2022-11-14T02:56:29.128Z,35.20
2022-11-14T02:59:15.048Z,37.30
2022-11-14T03:02:00.958Z,37.23
2022-11-14T03:04:46.808Z,35.87
2022-11-14T03:07:32.862Z,35.87
2022-11-14T03:10:19.005Z,36.47
2022-11-14T03:13:04.942Z,36.07
2022-11-14T03:15:50.615Z,36.57
2022-11-14T03:18:37.557Z,34.67
2022-11-14T03:21:23.967Z,34.70
2022-11-14T03:24:09.631Z,34.47
2022-11-14T03:26:55.700Z,35.17
2022-11-14T03:29:41.688Z,33.03
2022-11-14T03:32:27.505Z,34.23
2022-11-14T03:35:14.265Z,33.33
2022-11-14T03:37:59.977Z,34.33
2022-11-14T03:40:47.108Z,34.90
2022-11-14T03:43:34.628Z,35.47
2022-11-14T03:46:20.752Z,38.23
2022-11-14T03:49:07.000Z,45.40
2022-11-14T03:51:53.105Z,48.50
2022-11-14T03:54:39.302Z,39.67
2022-11-14T03:57:24.815Z,41.53
2022-11-14T04:00:11.647Z,40.37
2022-11-14T04:02:57.979Z,37.23
2022-11-14T04:05:45.576Z,37.77
2022-11-14T04:08:32.582Z,46.20
2022-11-14T04:11:19.470Z,45.77
2022-11-14T04:14:05.566Z,43.83
2022-11-14T04:16:51.468Z,44.17
2022-11-14T04:19:37.700Z,41.23
2022-11-14T04:22:23.486Z,42.03
2022-11-14T04:25:10.051Z,39.40
2022-11-14T04:27:56.246Z,38.73
2022-11-14T04:30:42.188Z,36.20
2022-11-14T04:33:28.042Z,35.67
2022-11-14T04:36:14.014Z,34.00
2022-11-14T04:39:00.040Z,35.47
2022-11-14T04:41:46.527Z,36.00
2022-11-14T04:44:32.539Z,34.43
2022-11-14T04:47:18.579Z,34.93
2022-11-14T04:50:05.301Z,33.93
2022-11-14T04:52:54.311Z,36.33
2022-11-14T04:55:40.187Z,32.60
2022-11-14T04:58:27.188Z,33.30
2022-11-14T05:01:14.597Z,32.67
2022-11-14T05:04:00.508Z,34.13
2022-11-14T05:06:46.568Z,33.60
2022-11-14T05:09:32.451Z,32.17
2022-11-14T05:12:18.263Z,33.67
2022-11-14T05:15:04.313Z,33.37
2022-11-14T05:17:50.613Z,33.90
2022-11-14T05:20:36.964Z,34.90
2022-11-14T05:23:24.269Z,34.53
2022-11-14T05:26:14.856Z,34.77
2022-11-14T05:29:00.926Z,32.43
2022-11-14T05:31:46.853Z,33.80
2022-11-14T05:34:32.890Z,35.83
2022-11-14T05:37:18.577Z,33.53
2022-11-14T05:40:06.277Z,41.97
2022-11-14T05:42:56.542Z,37.77
2022-11-14T05:45:42.312Z,36.63
2022-11-14T05:48:29.643Z,35.23
2022-11-14T05:51:15.910Z,32.67
2022-11-14T05:54:02.054Z,35.47
2022-11-14T05:56:47.600Z,34.67
2022-11-14T05:59:33.650Z,35.00
2022-11-14T06:02:19.859Z,33.63
2022-11-14T06:05:06.157Z,34.77
2022-11-14T06:07:59.648Z,34.57
2022-11-14T06:10:46.384Z,35.03
2022-11-14T06:13:32.928Z,36.10
2022-11-14T06:16:20.154Z,37.23
2022-11-14T06:19:06.961Z,38.57
2022-11-14T06:22:05.124Z,38.97
2022-11-14T06:24:53.111Z,39.07
2022-11-14T06:27:51.308Z,40.47
2022-11-14T06:30:38.408Z,38.87
2022-11-14T06:33:36.024Z,40.10
2022-11-14T06:36:21.710Z,40.47
2022-11-14T06:39:10.755Z,39.50
2022-11-14T06:41:56.996Z,39.43
2022-11-14T06:44:43.900Z,39.33
2022-11-14T06:47:30.765Z,39.40
2022-11-14T06:50:17.762Z,37.27
2022-11-14T06:53:03.702Z,39.57
2022-11-14T06:56:00.146Z,38.60
2022-11-14T06:58:48.551Z,35.90
2022-11-14T07:01:34.586Z,37.13
2022-11-14T07:04:21.498Z,38.53
2022-11-14T07:07:12.399Z,37.63
2022-11-14T07:10:00.239Z,37.63
2022-11-14T07:12:46.174Z,35.93
2022-11-14T07:15:32.920Z,39.30
2022-11-14T07:18:22.949Z,39.17
2022-11-14T07:21:10.106Z,35.77
2022-11-14T07:23:57.297Z,36.90
2022-11-14T07:26:43.170Z,36.57
2022-11-14T07:29:29.073Z,36.70
2022-11-14T07:32:25.289Z,37.47
2022-11-14T07:35:11.419Z,37.50
2022-11-14T07:38:05.730Z,34.67
2022-11-14T07:40:59.555Z,37.73
2022-11-14T07:43:46.013Z,36.47
2022-11-14T07:46:32.916Z,34.27
2022-11-14T07:49:18.740Z,35.03
2022-11-14T07:52:05.015Z,39.30
2022-11-14T07:54:54.043Z,37.23
2022-11-14T07:57:43.936Z,34.43
2022-11-14T08:00:32.580Z,33.17
2022-11-14T08:03:19.477Z,31.20
2022-11-14T08:06:10.008Z,30.60
2022-11-14T08:08:56.789Z,30.43
2022-11-14T08:11:48.331Z,37.57
2022-11-14T08:14:35.546Z,31.70
2022-11-14T08:17:25.219Z,30.87
2022-11-14T08:20:13.204Z,30.20
2022-11-14T08:23:18.846Z,29.30
2022-11-14T08:26:04.649Z,26.90
2022-11-14T08:28:55.107Z,28.97
2022-11-14T08:31:41.984Z,29.63
2022-11-14T08:34:30.584Z,30.57
2022-11-14T08:37:21.740Z,30.03
2022-11-14T08:40:08.335Z,29.57
2022-11-14T08:43:01.426Z,29.60
2022-11-14T08:45:47.161Z,28.30
2022-11-14T08:48:34.304Z,28.43
2022-11-14T08:51:21.195Z,29.10
2022-11-14T08:54:13.415Z,28.40
2022-11-14T08:57:00.349Z,28.47
2022-11-14T08:59:49.135Z,28.90
2022-11-14T09:02:35.285Z,30.67
2022-11-14T09:05:23.121Z,29.10
2022-11-14T09:08:08.885Z,27.83
2022-11-14T09:10:56.059Z,29.60
2022-11-14T09:13:41.904Z,30.67
2022-11-14T09:16:28.930Z,28.13
2022-11-14T09:19:15.075Z,27.40
2022-11-14T09:22:02.036Z,31.70
2022-11-14T09:24:49.651Z,27.30
2022-11-14T09:27:35.558Z,27.80
2022-11-14T09:30:22.815Z,27.90
2022-11-14T09:33:15.147Z,33.03
2022-11-14T09:36:07.650Z,30.70
2022-11-14T09:38:54.238Z,30.07
2022-11-14T09:42:06.285Z,32.83
2022-11-14T09:45:04.299Z,27.43
2022-11-14T09:47:55.602Z,28.17
2022-11-14T09:50:46.946Z,29.53
2022-11-14T09:53:42.767Z,29.50
2022-11-14T09:56:34.541Z,26.87
2022-11-14T09:59:20.583Z,29.20
2022-11-14T10:02:47.591Z,26.47
2022-11-14T10:05:48.183Z,26.17
2022-11-14T10:08:43.174Z,25.23
2022-11-14T10:11:36.664Z,28.60
2022-11-14T10:14:50.847Z,26.20
2022-11-14T10:18:03.209Z,30.10
2022-11-14T10:20:54.296Z,25.20
2022-11-14T10:24:10.018Z,24.47
2022-11-14T10:27:11.424Z,23.77
2022-11-14T10:30:18.784Z,24.63
2022-11-14T10:33:27.973Z,23.93
2022-11-14T10:36:29.016Z,26.67
2022-11-14T10:39:52.662Z,28.17
2022-11-14T10:42:43.317Z,23.47
2022-11-14T10:45:39.023Z,24.70
2022-11-14T10:48:39.945Z,23.50
2022-11-14T10:51:34.349Z,22.80
2022-11-14T10:54:34.054Z,22.00
2022-11-14T10:57:25.150Z,21.38
2022-11-14T11:00:18.997Z,20.15
2022-11-14T11:03:07.855Z,19.20
2022-11-14T11:05:57.817Z,21.55
2022-11-14T11:09:03.129Z,21.42
2022-11-14T11:11:59.080Z,20.63
2022-11-14T11:15:14.797Z,20.77
2022-11-14T11:18:05.710Z,20.58
2022-11-14T11:21:17.932Z,21.55
2022-11-14T11:24:05.058Z,19.42
2022-11-14T11:27:14.629Z,18.30
2022-11-14T11:30:07.691Z,18.90
2022-11-14T11:32:55.403Z,18.98
2022-11-14T11:35:43.324Z,18.92
2022-11-14T11:38:36.329Z,19.13
2022-11-14T11:42:08.645Z,17.83
2022-11-14T11:44:47.677Z,18.10
2022-11-14T11:47:35.840Z,18.00
2022-11-14T11:50:24.787Z,20.65
2022-11-14T11:53:39.341Z,19.83
2022-11-14T11:56:31.888Z,17.75
2022-11-14T11:59:51.366Z,18.60
2022-11-14T12:02:49.544Z,18.80
2022-11-14T12:06:04.970Z,19.25
2022-11-14T12:09:22.714Z,21.27
2022-11-14T12:12:43.498Z,19.42
2022-11-14T12:15:38.073Z,18.88
2022-11-14T12:18:36.908Z,19.80
2022-11-14T12:21:31.964Z,19.65
2022-11-14T12:24:38.149Z,19.33
2022-11-14T12:27:45.933Z,18.85
2022-11-14T12:30:35.320Z,18.50
2022-11-14T12:33:31.370Z,20.90
2022-11-14T12:36:17.607Z,20.43
2022-11-14T12:39:04.239Z,20.63
2022-11-14T12:42:00.457Z,21.47
2022-11-14T12:44:46.888Z,22.10
2022-11-14T12:48:16.805Z,22.80
2022-11-14T12:51:27.493Z,22.70
2022-11-14T12:54:44.710Z,23.07
2022-11-14T12:58:05.332Z,23.37
2022-11-14T13:00:51.300Z,23.57
2022-11-14T13:04:02.937Z,23.67
2022-11-14T13:07:20.636Z,23.40
2022-11-14T13:10:32.560Z,23.57
2022-11-14T13:13:37.392Z,25.10
2022-11-14T13:16:44.692Z,25.17
2022-11-14T13:19:50.140Z,24.57
2022-11-14T13:22:40.776Z,23.60
2022-11-14T13:25:28.715Z,24.20
2022-11-14T13:28:52.646Z,24.43
2022-11-14T13:31:51.593Z,25.47
2022-11-14T13:34:59.134Z,24.23
2022-11-14T13:38:06.600Z,24.63
2022-11-14T13:41:02.260Z,25.53
2022-11-14T13:44:18.441Z,24.00
2022-11-14T13:47:51.221Z,23.37
2022-11-14T13:50:38.414Z,25.07
2022-11-14T13:53:27.753Z,26.03
2022-11-14T13:56:24.526Z,24.67
2022-11-14T13:59:41.829Z,25.03
2022-11-14T14:02:40.652Z,24.70
2022-11-14T14:05:55.671Z,24.90
2022-11-14T14:09:06.815Z,23.93
2022-11-14T14:12:14.391Z,23.50
2022-11-14T14:15:21.364Z,23.60
2022-11-14T14:18:24.958Z,23.13
2022-11-14T14:21:22.906Z,22.67
2022-11-14T14:24:15.269Z,22.70
2022-11-14T14:27:26.483Z,23.37
2022-11-14T14:30:35.715Z,23.63
2022-11-14T14:33:22.387Z,24.73
2022-11-14T14:36:27.558Z,23.73
2022-11-14T14:39:26.543Z,23.47
2022-11-14T14:42:18.514Z,25.07
2022-11-14T14:45:05.436Z,24.77
2022-11-14T14:48:03.336Z,25.10
2022-11-14T14:50:59.051Z,25.67
2022-11-14T14:53:54.103Z,24.67
2022-11-14T14:56:54.391Z,25.47
2022-11-14T14:59:42.395Z,26.87
2022-11-14T15:02:29.548Z,27.40
2022-11-14T15:05:28.811Z,25.47
2022-11-14T15:08:17.573Z,26.83
2022-11-14T15:11:07.387Z,26.07
2022-11-14T15:13:58.318Z,25.43
2022-11-14T15:17:00.692Z,27.30
2022-11-14T15:19:49.883Z,26.73
2022-11-14T15:22:39.360Z,28.10
2022-11-14T15:25:25.527Z,28.50
2022-11-14T15:28:20.700Z,30.30
2022-11-14T15:31:21.149Z,28.60
2022-11-14T15:34:28.305Z,29.63
2022-11-14T15:37:14.396Z,31.87
2022-11-14T15:40:21.528Z,32.10
2022-11-14T15:43:49.782Z,31.70
2022-11-14T15:46:40.264Z,31.87
2022-11-14T15:49:36.884Z,33.40
2022-11-14T15:52:32.492Z,37.93
2022-11-14T15:55:39.296Z,34.37
2022-11-14T15:58:28.606Z,32.67
2022-11-14T16:01:26.400Z,31.07
2022-11-14T16:04:29.776Z,29.93
2022-11-14T16:07:23.297Z,31.50
2022-11-14T16:10:25.095Z,30.07
2022-11-14T16:13:16.948Z,30.40
2022-11-14T16:16:04.046Z,30.13
2022-11-14T16:18:53.084Z,30.40
2022-11-14T16:21:40.565Z,30.77
2022-11-14T16:24:36.584Z,31.33
2022-11-14T16:27:22.573Z,33.43
2022-11-14T16:30:12.645Z,35.93
2022-11-14T16:32:59.091Z,34.00
2022-11-14T16:35:45.936Z,32.50
2022-11-14T16:38:33.195Z,31.60
2022-11-14T16:41:20.021Z,32.07
2022-11-14T16:44:12.755Z,33.17
2022-11-14T16:46:59.114Z,36.00
2022-11-14T16:49:48.803Z,36.17
2022-11-14T16:52:39.363Z,31.87
2022-11-14T16:55:32.303Z,32.10
2022-11-14T16:58:18.379Z,31.67
2022-11-14T17:01:06.533Z,32.90
2022-11-14T17:04:00.447Z,32.13
2022-11-14T17:06:51.188Z,32.07
2022-11-14T17:09:42.609Z,33.00
2022-11-14T17:12:51.152Z,33.07
2022-11-14T17:17:04.455Z,32.70
2022-11-14T17:19:51.647Z,31.97
2022-11-14T17:23:06.590Z,32.33
2022-11-14T17:26:10.016Z,33.87
2022-11-14T17:28:56.569Z,32.07
2022-11-14T17:31:47.068Z,35.20
2022-11-14T17:34:34.038Z,36.00
2022-11-14T17:37:20.781Z,35.93
2022-11-14T17:40:17.444Z,33.07
2022-11-14T17:43:08.621Z,33.63
2022-11-14T17:46:33.446Z,33.53
2022-11-14T17:49:25.611Z,31.30
2022-11-14T17:56:29.734Z,32.20
2022-11-14T17:59:16.606Z,32.97
2022-11-14T18:02:14.401Z,32.70
2022-11-14T18:05:01.260Z,31.63
2022-11-14T18:08:09.536Z,33.10
2022-11-14T18:11:01.484Z,32.30
2022-11-14T18:13:56.182Z,31.43
2022-11-14T18:17:10.666Z,32.33
2022-11-14T18:19:56.819Z,30.43
2022-11-14T18:22:47.713Z,30.90
2022-11-14T18:26:11.588Z,33.00
2022-11-14T18:29:08.340Z,31.73
2022-11-14T18:31:59.718Z,32.30
2022-11-14T18:34:46.922Z,30.80
2022-11-14T18:37:39.897Z,32.23
2022-11-14T18:40:27.756Z,34.20
2022-11-14T18:43:46.095Z,33.67
2022-11-14T18:46:37.351Z,34.07
2022-11-14T18:49:38.879Z,34.63
2022-11-14T18:52:25.798Z,32.80
2022-11-14T18:55:11.569Z,31.53
2022-11-14T18:58:00.708Z,31.97
2022-11-14T19:00:56.930Z,33.23
2022-11-14T19:04:34.471Z,30.57
2022-11-14T19:07:20.283Z,46.70
2022-11-14T19:10:45.639Z,33.67
2022-11-14T19:13:35.766Z,32.10
2022-11-14T19:16:54.454Z,32.17
2022-11-14T19:24:57.963Z,33.07
2022-11-14T19:27:50.812Z,34.47
2022-11-14T19:30:36.575Z,38.23
2022-11-14T19:33:22.614Z,39.17
2022-11-14T19:36:27.836Z,40.77
2022-11-14T19:39:24.778Z,37.43
2022-11-14T19:42:12.707Z,39.93
2022-11-14T19:44:59.589Z,38.97
2022-11-14T19:47:49.195Z,38.40
2022-11-14T19:50:35.527Z,38.33
2022-11-14T19:53:39.519Z,42.03
2022-11-14T19:56:26.568Z,36.30
2022-11-14T19:59:23.997Z,39.53
2022-11-14T20:02:14.306Z,38.80
2022-11-14T20:05:05.446Z,38.77
2022-11-14T20:07:54.267Z,41.20
2022-11-14T20:10:47.873Z,41.83
2022-11-14T20:13:37.168Z,41.70
2022-11-14T20:16:38.583Z,43.03
2022-11-14T20:19:28.970Z,43.40
2022-11-14T20:22:19.472Z,41.10
2022-11-14T20:25:06.134Z,41.40
2022-11-14T20:28:01.971Z,42.80
2022-11-14T20:30:48.873Z,42.97
2022-11-14T20:33:42.192Z,43.03
2022-11-14T20:36:50.047Z,42.13
2022-11-14T20:39:37.708Z,41.90
2022-11-14T20:42:26.820Z,40.77
2022-11-14T20:45:15.442Z,39.97
2022-11-14T20:48:13.621Z,39.70
2022-11-14T20:51:04.495Z,38.77
2022-11-14T20:53:53.773Z,39.57
2022-11-14T20:56:39.637Z,37.27
2022-11-14T20:59:35.676Z,37.33
2022-11-14T21:02:23.901Z,37.63
2022-11-14T21:05:15.390Z,37.27
2022-11-14T21:08:02.359Z,37.33
2022-11-14T21:11:02.766Z,38.30
2022-11-14T21:14:01.869Z,37.80
2022-11-14T21:16:47.777Z,38.33
2022-11-14T21:19:35.398Z,41.47
2022-11-14T21:22:26.605Z,38.87
2022-11-14T21:25:13.271Z,39.23
2022-11-14T21:28:01.249Z,41.00
2022-11-14T21:30:49.195Z,41.80
2022-11-14T21:33:59.528Z,36.93
2022-11-14T21:36:47.049Z,40.57
2022-11-14T21:39:36.183Z,41.57
2022-11-14T21:42:23.328Z,38.00
2022-11-14T21:45:19.562Z,41.97
2022-11-14T21:48:05.334Z,39.93
2022-11-14T21:51:01.922Z,38.20
2022-11-14T21:54:12.792Z,42.33
2022-11-14T21:57:09.574Z,39.93
2022-11-14T21:59:56.096Z,40.03
2022-11-14T22:03:18.661Z,38.90
2022-11-14T22:06:30.635Z,36.70
2022-11-14T22:09:39.778Z,39.93
2022-11-14T22:12:27.112Z,35.73
2022-11-14T22:15:16.169Z,36.63
2022-11-14T22:18:03.438Z,38.43
2022-11-14T22:21:31.384Z,38.40
2022-11-14T22:24:47.642Z,36.30
2022-11-14T22:27:40.875Z,36.50
2022-11-14T22:30:29.009Z,35.93
2022-11-14T22:33:46.649Z,35.97
2022-11-14T22:36:56.131Z,37.27
2022-11-14T22:39:47.002Z,37.40
2022-11-14T22:42:39.211Z,38.80
2022-11-14T22:45:31.032Z,36.10
2022-11-14T22:48:17.820Z,36.40
2022-11-14T22:51:09.275Z,36.73
2022-11-14T22:54:08.453Z,36.33
2022-11-14T22:56:55.129Z,38.03
2022-11-14T23:00:20.540Z,36.53
2022-11-14T23:03:07.746Z,36.33
2022-11-14T23:06:25.254Z,37.17
2022-11-14T23:09:10.887Z,34.93
2022-11-14T23:11:58.706Z,36.03
2022-11-14T23:14:44.787Z,36.10
2022-11-14T23:17:39.915Z,35.63
2022-11-14T23:20:27.455Z,36.57
2022-11-14T23:23:22.360Z,35.20
2022-11-14T23:26:15.912Z,36.33
2022-11-14T23:29:03.439Z,37.63
2022-11-14T23:31:51.139Z,36.57
2022-11-14T23:34:37.007Z,36.83
2022-11-14T23:37:28.881Z,36.93
2022-11-14T23:40:17.650Z,36.67
2022-11-14T23:43:03.670Z,37.80
2022-11-14T23:45:58.729Z,36.40
2022-11-14T23:48:45.510Z,35.13
2022-11-14T23:51:47.748Z,37.10
2022-11-14T23:54:35.810Z,33.70
2022-11-14T23:57:26.869Z,35.43
